KGVL/GVL METAR and TAF weather

Enter ICAO airport designator
Station Type Date Time Source
KGVL METAR 2021/10/20 05:53 UTC NOAA

KGVL 200553Z AUTO 00000KT 10SM CLR 12/11 A3026 RMK AO2 SLP239 T01220106 10167 20122 58001


Station Type Date Time Source
KGVL Decoded METAR 2021/10/20 05:53 UTC NOAA

GILMER MEMORIAL AIRPORT, GA, United States (KGVL) 34-16N 83-50W 386M
Oct 20, 2021 - 01:53 AM EDT / 2021.10.20 0553 UTC
Wind: Calm:0
Visibility: 10 mile(s):0
Sky conditions: clear
Temperature: 54.0 F (12.2 C)
Dew Point: 51.1 F (10.6 C)
Relative Humidity: 89%
Pressure (altimeter): 30.26 in. Hg (1024 hPa)
Pressure tendency: 0.00 inches (0.1 hPa) lower than three hours ago
ob: KGVL 200553Z AUTO 00000KT 10SM CLR 12/11 A3026 RMK AO2 SLP239 T01220106 10167 20122 58001
cycle: 6

Station Type Date Time Source
KGVL TAF UTC NOAA

Error!

Example: see airport list